sensor_id;sensor_type;location;lat;lon;timestamp;P1;durP1;ratioP1;P2;durP2;ratioP2
39018;SDS011;24786;51.984;5.872;2022-10-31T00:02:22;16.52;;;9.07;;
39018;SDS011;24786;51.984;5.872;2022-10-31T00:04:49;13.63;;;9.15;;
39018;SDS011;24786;51.984;5.872;2022-10-31T00:07:15;14.18;;;8.93;;
39018;SDS011;24786;51.984;5.872;2022-10-31T00:09:40;15.35;;;9.05;;
39018;SDS011;24786;51.984;5.872;2022-10-31T00:12:06;12.95;;;8.98;;
39018;SDS011;24786;51.984;5.872;2022-10-31T00:14:31;14.55;;;9.25;;
39018;SDS011;24786;51.984;5.872;2022-10-31T00:16:57;12.98;;;9.00;;
39018;SDS011;24786;51.984;5.872;2022-10-31T00:19:22;17.30;;;9.55;;
39018;SDS011;24786;51.984;5.872;2022-10-31T00:21:48;18.52;;;10.10;;
39018;SDS011;24786;51.984;5.872;2022-10-31T00:24:16;17.58;;;10.05;;
39018;SDS011;24786;51.984;5.872;2022-10-31T00:26:42;19.92;;;11.23;;
39018;SDS011;24786;51.984;5.872;2022-10-31T00:29:07;16.50;;;11.25;;
39018;SDS011;24786;51.984;5.872;2022-10-31T00:31:33;17.00;;;10.15;;
39018;SDS011;24786;51.984;5.872;2022-10-31T00:33:58;18.92;;;10.57;;
39018;SDS011;24786;51.984;5.872;2022-10-31T00:36:24;15.98;;;9.23;;
39018;SDS011;24786;51.984;5.872;2022-10-31T00:38:50;19.55;;;11.32;;
39018;SDS011;24786;51.984;5.872;2022-10-31T00:41:16;18.27;;;10.80;;
39018;SDS011;24786;51.984;5.872;2022-10-31T00:43:42;18.20;;;11.43;;
39018;SDS011;24786;51.984;5.872;2022-10-31T00:46:09;15.77;;;10.50;;
39018;SDS011;24786;51.984;5.872;2022-10-31T00:48:35;19.30;;;11.60;;
39018;SDS011;24786;51.984;5.872;2022-10-31T00:51:01;18.67;;;11.02;;
39018;SDS011;24786;51.984;5.872;2022-10-31T00:53:27;14.80;;;10.63;;
39018;SDS011;24786;51.984;5.872;2022-10-31T00:55:52;16.90;;;10.52;;
39018;SDS011;24786;51.984;5.872;2022-10-31T00:58:18;17.88;;;11.38;;
39018;SDS011;24786;51.984;5.872;2022-10-31T01:00:43;18.98;;;12.02;;
39018;SDS011;24786;51.984;5.872;2022-10-31T01:03:11;18.73;;;12.00;;
39018;SDS011;24786;51.984;5.872;2022-10-31T01:05:36;19.98;;;11.40;;
39018;SDS011;24786;51.984;5.872;2022-10-31T01:08:02;14.13;;;10.55;;
39018;SDS011;24786;51.984;5.872;2022-10-31T01:10:28;19.35;;;10.70;;
39018;SDS011;24786;51.984;5.872;2022-10-31T01:12:53;19.02;;;11.35;;
39018;SDS011;24786;51.984;5.872;2022-10-31T01:15:20;20.42;;;11.43;;
39018;SDS011;24786;51.984;5.872;2022-10-31T01:17:47;18.75;;;11.15;;
39018;SDS011;24786;51.984;5.872;2022-10-31T01:20:13;18.80;;;11.30;;
39018;SDS011;24786;51.984;5.872;2022-10-31T01:22:40;16.55;;;11.35;;
39018;SDS011;24786;51.984;5.872;2022-10-31T01:25:06;23.65;;;10.80;;
39018;SDS011;24786;51.984;5.872;2022-10-31T01:27:33;17.27;;;11.43;;
39018;SDS011;24786;51.984;5.872;2022-10-31T01:29:59;17.02;;;11.02;;
39018;SDS011;24786;51.984;5.872;2022-10-31T01:32:24;14.40;;;10.27;;
39018;SDS011;24786;51.984;5.872;2022-10-31T01:34:51;17.83;;;10.80;;
39018;SDS011;24786;51.984;5.872;2022-10-31T01:37:17;15.98;;;11.20;;
39018;SDS011;24786;51.984;5.872;2022-10-31T01:39:42;19.58;;;10.75;;
39018;SDS011;24786;51.984;5.872;2022-10-31T01:42:10;16.13;;;10.32;;
39018;SDS011;24786;51.984;5.872;2022-10-31T01:47:12;14.55;;;9.60;;
39018;SDS011;24786;51.984;5.872;2022-10-31T01:49:57;14.95;;;9.80;;
39018;SDS011;24786;51.984;5.872;2022-10-31T01:52:36;14.65;;;10.15;;
39018;SDS011;24786;51.984;5.872;2022-10-31T01:55:07;16.08;;;10.40;;
39018;SDS011;24786;51.984;5.872;2022-10-31T01:57:35;15.40;;;10.23;;
39018;SDS011;24786;51.984;5.872;2022-10-31T02:00:04;17.25;;;10.98;;
39018;SDS011;24786;51.984;5.872;2022-10-31T02:02:33;18.25;;;10.68;;
39018;SDS011;24786;51.984;5.872;2022-10-31T02:05:00;16.75;;;11.30;;
39018;SDS011;24786;51.984;5.872;2022-10-31T02:07:39;15.10;;;10.18;;
39018;SDS011;24786;51.984;5.872;2022-10-31T02:10:06;16.70;;;10.73;;
39018;SDS011;24786;51.984;5.872;2022-10-31T02:12:32;13.82;;;10.40;;
39018;SDS011;24786;51.984;5.872;2022-10-31T02:15:01;14.30;;;10.60;;
39018;SDS011;24786;51.984;5.872;2022-10-31T02:17:28;17.50;;;10.75;;
39018;SDS011;24786;51.984;5.872;2022-10-31T02:20:05;20.73;;;10.70;;
39018;SDS011;24786;51.984;5.872;2022-10-31T02:31:43;16.52;;;10.43;;
39018;SDS011;24786;51.984;5.872;2022-10-31T02:34:36;13.52;;;10.07;;
39018;SDS011;24786;51.984;5.872;2022-10-31T02:39:53;15.88;;;10.82;;
39018;SDS011;24786;51.984;5.872;2022-10-31T02:42:32;18.05;;;11.68;;
39018;SDS011;24786;51.984;5.872;2022-10-31T02:45:11;16.75;;;11.15;;
39018;SDS011;24786;51.984;5.872;2022-10-31T02:47:44;17.30;;;10.48;;
39018;SDS011;24786;51.984;5.872;2022-10-31T02:52:42;16.60;;;10.38;;
39018;SDS011;24786;51.984;5.872;2022-10-31T02:55:55;19.00;;;10.95;;
39018;SDS011;24786;51.984;5.872;2022-10-31T02:57:54;15.48;;;10.07;;
39018;SDS011;24786;51.984;5.872;2022-10-31T03:00:25;16.75;;;11.27;;
39018;SDS011;24786;51.984;5.872;2022-10-31T03:05:45;14.18;;;9.30;;
39018;SDS011;24786;51.984;5.872;2022-10-31T03:08:35;16.48;;;10.60;;
39018;SDS011;24786;51.984;5.872;2022-10-31T03:11:09;15.93;;;10.57;;
39018;SDS011;24786;51.984;5.872;2022-10-31T03:13:39;15.27;;;10.23;;
39018;SDS011;24786;51.984;5.872;2022-10-31T03:16:23;17.23;;;10.45;;
39018;SDS011;24786;51.984;5.872;2022-10-31T03:18:58;14.13;;;10.75;;
39018;SDS011;24786;51.984;5.872;2022-10-31T03:21:48;16.15;;;10.70;;
39018;SDS011;24786;51.984;5.872;2022-10-31T03:24:20;13.57;;;10.77;;
39018;SDS011;24786;51.984;5.872;2022-10-31T03:26:50;18.88;;;10.82;;
39018;SDS011;24786;51.984;5.872;2022-10-31T03:29:19;15.38;;;10.10;;
39018;SDS011;24786;51.984;5.872;2022-10-31T03:35:08;17.10;;;9.93;;
39018;SDS011;24786;51.984;5.872;2022-10-31T03:37:35;15.90;;;10.68;;
39018;SDS011;24786;51.984;5.872;2022-10-31T03:40:02;15.68;;;10.65;;
39018;SDS011;24786;51.984;5.872;2022-10-31T03:42:32;13.02;;;9.48;;
39018;SDS011;24786;51.984;5.872;2022-10-31T03:45:11;17.08;;;10.63;;
39018;SDS011;24786;51.984;5.872;2022-10-31T03:47:39;17.90;;;11.00;;
39018;SDS011;24786;51.984;5.872;2022-10-31T03:50:08;19.65;;;11.07;;
39018;SDS011;24786;51.984;5.872;2022-10-31T03:55:06;21.20;;;11.95;;
39018;SDS011;24786;51.984;5.872;2022-10-31T03:57:41;20.33;;;12.27;;
39018;SDS011;24786;51.984;5.872;2022-10-31T04:00:22;17.88;;;11.43;;
39018;SDS011;24786;51.984;5.872;2022-10-31T04:02:55;19.75;;;11.23;;
39018;SDS011;24786;51.984;5.872;2022-10-31T04:05:26;18.15;;;11.10;;
39018;SDS011;24786;51.984;5.872;2022-10-31T04:07:54;17.08;;;12.15;;
39018;SDS011;24786;51.984;5.872;2022-10-31T04:10:22;17.65;;;10.75;;
39018;SDS011;24786;51.984;5.872;2022-10-31T04:12:51;17.13;;;10.02;;
39018;SDS011;24786;51.984;5.872;2022-10-31T04:15:22;18.52;;;11.20;;
39018;SDS011;24786;51.984;5.872;2022-10-31T04:17:50;20.33;;;11.85;;
39018;SDS011;24786;51.984;5.872;2022-10-31T04:20:28;19.02;;;11.48;;
39018;SDS011;24786;51.984;5.872;2022-10-31T04:22:55;18.58;;;11.02;;
39018;SDS011;24786;51.984;5.872;2022-10-31T04:25:20;16.90;;;11.20;;
39018;SDS011;24786;51.984;5.872;2022-10-31T04:27:46;15.70;;;10.60;;
39018;SDS011;24786;51.984;5.872;2022-10-31T04:30:11;17.50;;;11.05;;
39018;SDS011;24786;51.984;5.872;2022-10-31T04:32:37;18.67;;;10.95;;
39018;SDS011;24786;51.984;5.872;2022-10-31T04:35:02;21.13;;;10.95;;
39018;SDS011;24786;51.984;5.872;2022-10-31T04:37:28;22.65;;;11.38;;
39018;SDS011;24786;51.984;5.872;2022-10-31T04:39:54;18.13;;;12.00;;
39018;SDS011;24786;51.984;5.872;2022-10-31T04:42:19;19.05;;;12.05;;
39018;SDS011;24786;51.984;5.872;2022-10-31T04:44:45;17.92;;;12.10;;
39018;SDS011;24786;51.984;5.872;2022-10-31T04:47:10;17.55;;;11.68;;
39018;SDS011;24786;51.984;5.872;2022-10-31T04:49:36;18.13;;;11.55;;
39018;SDS011;24786;51.984;5.872;2022-10-31T04:52:02;20.25;;;13.00;;
39018;SDS011;24786;51.984;5.872;2022-10-31T04:54:27;21.50;;;12.15;;
39018;SDS011;24786;51.984;5.872;2022-10-31T04:56:53;19.50;;;11.70;;
39018;SDS011;24786;51.984;5.872;2022-10-31T04:59:18;21.20;;;12.80;;
39018;SDS011;24786;51.984;5.872;2022-10-31T05:01:44;20.35;;;11.95;;
39018;SDS011;24786;51.984;5.872;2022-10-31T05:04:09;25.25;;;13.30;;
39018;SDS011;24786;51.984;5.872;2022-10-31T05:06:35;20.98;;;13.38;;
39018;SDS011;24786;51.984;5.872;2022-10-31T05:09:00;23.60;;;14.68;;
39018;SDS011;24786;51.984;5.872;2022-10-31T05:11:26;19.25;;;13.05;;
39018;SDS011;24786;51.984;5.872;2022-10-31T05:13:52;18.88;;;12.40;;
39018;SDS011;24786;51.984;5.872;2022-10-31T05:16:17;27.65;;;13.52;;
39018;SDS011;24786;51.984;5.872;2022-10-31T05:18:43;22.58;;;13.65;;
39018;SDS011;24786;51.984;5.872;2022-10-31T05:21:08;23.20;;;14.00;;
39018;SDS011;24786;51.984;5.872;2022-10-31T05:23:34;26.92;;;14.05;;
39018;SDS011;24786;51.984;5.872;2022-10-31T05:25:59;25.13;;;13.88;;
39018;SDS011;24786;51.984;5.872;2022-10-31T05:28:25;21.02;;;13.45;;
39018;SDS011;24786;51.984;5.872;2022-10-31T05:30:50;19.15;;;12.70;;
39018;SDS011;24786;51.984;5.872;2022-10-31T05:33:16;20.63;;;12.80;;
39018;SDS011;24786;51.984;5.872;2022-10-31T05:35:41;23.08;;;13.45;;
39018;SDS011;24786;51.984;5.872;2022-10-31T05:38:07;19.52;;;13.02;;
39018;SDS011;24786;51.984;5.872;2022-10-31T05:40:33;24.60;;;12.88;;
39018;SDS011;24786;51.984;5.872;2022-10-31T05:42:58;22.17;;;13.52;;
39018;SDS011;24786;51.984;5.872;2022-10-31T05:45:24;20.52;;;13.73;;
39018;SDS011;24786;51.984;5.872;2022-10-31T05:47:53;21.85;;;13.85;;
39018;SDS011;24786;51.984;5.872;2022-10-31T05:50:21;23.98;;;14.25;;
39018;SDS011;24786;51.984;5.872;2022-10-31T05:52:47;26.27;;;14.40;;
39018;SDS011;24786;51.984;5.872;2022-10-31T05:55:18;20.77;;;13.60;;
39018;SDS011;24786;51.984;5.872;2022-10-31T05:57:44;22.25;;;13.90;;
39018;SDS011;24786;51.984;5.872;2022-10-31T06:00:10;21.77;;;13.55;;
39018;SDS011;24786;51.984;5.872;2022-10-31T06:02:36;22.73;;;14.60;;
39018;SDS011;24786;51.984;5.872;2022-10-31T06:05:01;23.52;;;14.70;;
39018;SDS011;24786;51.984;5.872;2022-10-31T06:07:31;25.95;;;14.40;;
39018;SDS011;24786;51.984;5.872;2022-10-31T06:09:58;28.40;;;16.30;;
39018;SDS011;24786;51.984;5.872;2022-10-31T06:12:23;29.23;;;15.55;;
39018;SDS011;24786;51.984;5.872;2022-10-31T06:14:49;26.45;;;16.73;;
39018;SDS011;24786;51.984;5.872;2022-10-31T06:17:14;27.45;;;16.05;;
39018;SDS011;24786;51.984;5.872;2022-10-31T06:19:40;28.20;;;14.73;;
39018;SDS011;24786;51.984;5.872;2022-10-31T06:22:06;25.88;;;14.20;;
39018;SDS011;24786;51.984;5.872;2022-10-31T06:24:31;24.73;;;15.32;;
39018;SDS011;24786;51.984;5.872;2022-10-31T06:26:57;22.55;;;14.27;;
39018;SDS011;24786;51.984;5.872;2022-10-31T06:29:23;27.17;;;14.82;;
39018;SDS011;24786;51.984;5.872;2022-10-31T06:31:50;30.85;;;15.50;;
39018;SDS011;24786;51.984;5.872;2022-10-31T06:34:16;23.45;;;14.07;;
39018;SDS011;24786;51.984;5.872;2022-10-31T06:36:42;24.08;;;14.18;;
39018;SDS011;24786;51.984;5.872;2022-10-31T06:39:07;22.77;;;13.75;;
39018;SDS011;24786;51.984;5.872;2022-10-31T06:41:33;25.27;;;15.38;;
39018;SDS011;24786;51.984;5.872;2022-10-31T06:43:58;26.30;;;15.07;;
39018;SDS011;24786;51.984;5.872;2022-10-31T06:46:24;23.45;;;14.77;;
39018;SDS011;24786;51.984;5.872;2022-10-31T06:48:49;21.42;;;13.63;;
39018;SDS011;24786;51.984;5.872;2022-10-31T06:51:15;23.30;;;15.23;;
39018;SDS011;24786;51.984;5.872;2022-10-31T06:53:41;21.70;;;14.52;;
39018;SDS011;24786;51.984;5.872;2022-10-31T06:56:06;23.83;;;14.90;;
39018;SDS011;24786;51.984;5.872;2022-10-31T06:58:32;26.95;;;16.50;;
39018;SDS011;24786;51.984;5.872;2022-10-31T07:01:00;21.52;;;14.93;;
39018;SDS011;24786;51.984;5.872;2022-10-31T07:03:26;22.00;;;13.98;;
39018;SDS011;24786;51.984;5.872;2022-10-31T07:05:54;26.17;;;16.08;;
39018;SDS011;24786;51.984;5.872;2022-10-31T07:08:20;23.50;;;15.43;;
39018;SDS011;24786;51.984;5.872;2022-10-31T07:10:50;22.80;;;14.85;;
39018;SDS011;24786;51.984;5.872;2022-10-31T07:13:21;22.80;;;14.55;;
39018;SDS011;24786;51.984;5.872;2022-10-31T07:15:50;25.13;;;14.45;;
39018;SDS011;24786;51.984;5.872;2022-10-31T07:18:17;24.83;;;14.38;;
39018;SDS011;24786;51.984;5.872;2022-10-31T07:20:42;27.30;;;15.82;;
39018;SDS011;24786;51.984;5.872;2022-10-31T07:23:09;27.40;;;15.02;;
39018;SDS011;24786;51.984;5.872;2022-10-31T07:25:36;27.33;;;16.50;;
39018;SDS011;24786;51.984;5.872;2022-10-31T07:28:02;22.35;;;14.63;;
39018;SDS011;24786;51.984;5.872;2022-10-31T07:30:28;27.65;;;17.05;;
39018;SDS011;24786;51.984;5.872;2022-10-31T07:32:53;29.02;;;16.65;;
39018;SDS011;24786;51.984;5.872;2022-10-31T07:35:24;30.80;;;17.25;;
39018;SDS011;24786;51.984;5.872;2022-10-31T07:37:51;31.95;;;16.58;;
39018;SDS011;24786;51.984;5.872;2022-10-31T07:40:17;24.75;;;15.57;;
39018;SDS011;24786;51.984;5.872;2022-10-31T07:42:45;31.40;;;18.27;;
39018;SDS011;24786;51.984;5.872;2022-10-31T07:45:12;29.88;;;17.88;;
39018;SDS011;24786;51.984;5.872;2022-10-31T07:47:39;29.88;;;17.38;;
39018;SDS011;24786;51.984;5.872;2022-10-31T07:50:06;30.33;;;18.58;;
39018;SDS011;24786;51.984;5.872;2022-10-31T07:52:33;29.13;;;18.48;;
39018;SDS011;24786;51.984;5.872;2022-10-31T07:54:58;30.75;;;19.02;;
39018;SDS011;24786;51.984;5.872;2022-10-31T07:57:24;28.40;;;17.52;;
39018;SDS011;24786;51.984;5.872;2022-10-31T07:59:50;31.05;;;18.50;;
39018;SDS011;24786;51.984;5.872;2022-10-31T08:02:15;30.23;;;18.35;;
39018;SDS011;24786;51.984;5.872;2022-10-31T08:04:41;29.95;;;18.55;;
39018;SDS011;24786;51.984;5.872;2022-10-31T08:07:06;30.23;;;18.65;;
39018;SDS011;24786;51.984;5.872;2022-10-31T08:09:32;29.23;;;16.92;;
39018;SDS011;24786;51.984;5.872;2022-10-31T08:11:57;32.42;;;16.75;;
39018;SDS011;24786;51.984;5.872;2022-10-31T08:14:23;29.27;;;17.30;;
39018;SDS011;24786;51.984;5.872;2022-10-31T08:16:49;29.58;;;18.63;;
39018;SDS011;24786;51.984;5.872;2022-10-31T08:19:14;25.45;;;16.02;;
39018;SDS011;24786;51.984;5.872;2022-10-31T08:21:40;28.15;;;17.45;;
39018;SDS011;24786;51.984;5.872;2022-10-31T08:24:05;31.48;;;18.63;;
39018;SDS011;24786;51.984;5.872;2022-10-31T08:26:31;29.05;;;17.95;;
39018;SDS011;24786;51.984;5.872;2022-10-31T08:28:57;25.13;;;16.15;;
39018;SDS011;24786;51.984;5.872;2022-10-31T08:31:23;26.30;;;17.15;;
39018;SDS011;24786;51.984;5.872;2022-10-31T08:33:51;29.75;;;19.33;;
39018;SDS011;24786;51.984;5.872;2022-10-31T08:36:17;31.70;;;18.60;;
39018;SDS011;24786;51.984;5.872;2022-10-31T08:38:43;34.22;;;20.85;;
39018;SDS011;24786;51.984;5.872;2022-10-31T08:41:08;34.25;;;20.48;;
39018;SDS011;24786;51.984;5.872;2022-10-31T08:43:34;33.08;;;21.23;;
39018;SDS011;24786;51.984;5.872;2022-10-31T08:45:59;42.05;;;23.25;;
39018;SDS011;24786;51.984;5.872;2022-10-31T08:48:25;39.95;;;23.30;;
39018;SDS011;24786;51.984;5.872;2022-10-31T08:50:50;36.70;;;21.30;;
39018;SDS011;24786;51.984;5.872;2022-10-31T08:53:19;39.50;;;22.63;;
39018;SDS011;24786;51.984;5.872;2022-10-31T08:55:47;41.33;;;23.00;;
39018;SDS011;24786;51.984;5.872;2022-10-31T08:58:14;40.88;;;22.98;;
39018;SDS011;24786;51.984;5.872;2022-10-31T09:00:42;36.15;;;21.08;;
39018;SDS011;24786;51.984;5.872;2022-10-31T09:03:09;38.60;;;22.55;;
39018;SDS011;24786;51.984;5.872;2022-10-31T09:05:48;33.60;;;20.30;;
39018;SDS011;24786;51.984;5.872;2022-10-31T09:08:14;33.03;;;19.33;;
39018;SDS011;24786;51.984;5.872;2022-10-31T09:10:41;35.42;;;19.85;;
39018;SDS011;24786;51.984;5.872;2022-10-31T09:13:09;33.65;;;20.08;;
39018;SDS011;24786;51.984;5.872;2022-10-31T09:15:37;32.17;;;19.63;;
39018;SDS011;24786;51.984;5.872;2022-10-31T09:18:04;28.50;;;17.48;;
39018;SDS011;24786;51.984;5.872;2022-10-31T09:20:31;30.42;;;18.80;;
39018;SDS011;24786;51.984;5.872;2022-10-31T09:22:58;30.38;;;18.85;;
39018;SDS011;24786;51.984;5.872;2022-10-31T09:25:26;28.30;;;18.05;;
39018;SDS011;24786;51.984;5.872;2022-10-31T09:27:55;25.75;;;17.00;;
39018;SDS011;24786;51.984;5.872;2022-10-31T09:30:24;27.08;;;17.92;;
39018;SDS011;24786;51.984;5.872;2022-10-31T09:32:58;26.40;;;18.02;;
39018;SDS011;24786;51.984;5.872;2022-10-31T09:35:25;29.30;;;17.35;;
39018;SDS011;24786;51.984;5.872;2022-10-31T09:40:54;26.52;;;17.73;;
39018;SDS011;24786;51.984;5.872;2022-10-31T09:43:46;25.45;;;15.27;;
39018;SDS011;24786;51.984;5.872;2022-10-31T09:46:31;26.67;;;16.02;;
39018;SDS011;24786;51.984;5.872;2022-10-31T09:49:32;20.90;;;13.68;;
39018;SDS011;24786;51.984;5.872;2022-10-31T09:54:50;27.40;;;15.70;;
39018;SDS011;24786;51.984;5.872;2022-10-31T09:57:23;27.98;;;16.85;;
39018;SDS011;24786;51.984;5.872;2022-10-31T09:59:58;22.73;;;14.55;;
39018;SDS011;24786;51.984;5.872;2022-10-31T10:02:46;26.83;;;15.80;;
39018;SDS011;24786;51.984;5.872;2022-10-31T10:05:17;27.00;;;14.90;;
39018;SDS011;24786;51.984;5.872;2022-10-31T10:08:03;23.80;;;15.98;;
39018;SDS011;24786;51.984;5.872;2022-10-31T10:10:53;31.98;;;16.73;;
39018;SDS011;24786;51.984;5.872;2022-10-31T10:13:43;30.50;;;16.13;;
39018;SDS011;24786;51.984;5.872;2022-10-31T10:21:28;29.50;;;17.02;;
39018;SDS011;24786;51.984;5.872;2022-10-31T10:32:42;30.92;;;18.45;;
39018;SDS011;24786;51.984;5.872;2022-10-31T10:37:49;31.80;;;19.40;;
39018;SDS011;24786;51.984;5.872;2022-10-31T10:40:19;34.55;;;18.27;;
39018;SDS011;24786;51.984;5.872;2022-10-31T10:43:31;35.05;;;20.05;;
39018;SDS011;24786;51.984;5.872;2022-10-31T10:46:05;31.77;;;17.70;;
39018;SDS011;24786;51.984;5.872;2022-10-31T10:51:47;36.53;;;18.65;;
39018;SDS011;24786;51.984;5.872;2022-10-31T10:57:27;31.38;;;17.70;;
39018;SDS011;24786;51.984;5.872;2022-10-31T11:00:21;29.75;;;18.27;;
39018;SDS011;24786;51.984;5.872;2022-10-31T11:02:48;27.60;;;16.75;;
39018;SDS011;24786;51.984;5.872;2022-10-31T11:05:24;32.30;;;17.25;;
39018;SDS011;24786;51.984;5.872;2022-10-31T11:08:03;29.33;;;17.92;;
39018;SDS011;24786;51.984;5.872;2022-10-31T11:10:30;30.48;;;16.33;;
39018;SDS011;24786;51.984;5.872;2022-10-31T11:15:26;29.10;;;16.85;;
39018;SDS011;24786;51.984;5.872;2022-10-31T11:17:55;31.65;;;18.00;;
39018;SDS011;24786;51.984;5.872;2022-10-31T11:20:24;31.48;;;17.73;;
39018;SDS011;24786;51.984;5.872;2022-10-31T11:23:03;29.70;;;16.67;;
39018;SDS011;24786;51.984;5.872;2022-10-31T11:26:05;28.17;;;16.10;;
39018;SDS011;24786;51.984;5.872;2022-10-31T11:28:32;33.00;;;18.25;;
39018;SDS011;24786;51.984;5.872;2022-10-31T11:31:00;35.92;;;19.42;;
39018;SDS011;24786;51.984;5.872;2022-10-31T11:33:33;40.42;;;19.30;;
39018;SDS011;24786;51.984;5.872;2022-10-31T11:36:01;33.55;;;17.63;;
39018;SDS011;24786;51.984;5.872;2022-10-31T11:38:41;28.83;;;17.70;;
39018;SDS011;24786;51.984;5.872;2022-10-31T11:41:10;35.75;;;17.17;;
39018;SDS011;24786;51.984;5.872;2022-10-31T11:43:46;34.45;;;19.10;;
39018;SDS011;24786;51.984;5.872;2022-10-31T11:46:22;39.42;;;19.27;;
39018;SDS011;24786;51.984;5.872;2022-10-31T11:49:02;41.45;;;21.08;;
39018;SDS011;24786;51.984;5.872;2022-10-31T11:51:30;39.67;;;19.92;;
39018;SDS011;24786;51.984;5.872;2022-10-31T11:53:58;36.25;;;17.95;;
39018;SDS011;24786;51.984;5.872;2022-10-31T11:56:24;32.35;;;19.77;;
39018;SDS011;24786;51.984;5.872;2022-10-31T11:58:57;36.00;;;17.83;;
39018;SDS011;24786;51.984;5.872;2022-10-31T12:01:29;38.08;;;20.55;;
39018;SDS011;24786;51.984;5.872;2022-10-31T12:06:35;35.03;;;18.02;;
39018;SDS011;24786;51.984;5.872;2022-10-31T12:09:02;35.67;;;19.02;;
39018;SDS011;24786;51.984;5.872;2022-10-31T12:20:59;33.83;;;19.33;;
39018;SDS011;24786;51.984;5.872;2022-10-31T12:26:32;30.73;;;18.40;;
39018;SDS011;24786;51.984;5.872;2022-10-31T12:29:08;36.45;;;18.92;;
39018;SDS011;24786;51.984;5.872;2022-10-31T12:31:52;34.17;;;18.23;;
39018;SDS011;24786;51.984;5.872;2022-10-31T12:35:03;36.05;;;18.85;;
39018;SDS011;24786;51.984;5.872;2022-10-31T12:56:56;36.58;;;18.77;;
39018;SDS011;24786;51.984;5.872;2022-10-31T13:01:58;41.40;;;19.38;;
39018;SDS011;24786;51.984;5.872;2022-10-31T13:07:34;38.90;;;20.95;;
39018;SDS011;24786;51.984;5.872;2022-10-31T13:10:16;37.97;;;20.65;;
39018;SDS011;24786;51.984;5.872;2022-10-31T13:12:49;32.60;;;18.52;;
39018;SDS011;24786;51.984;5.872;2022-10-31T13:17:54;35.58;;;20.88;;
39018;SDS011;24786;51.984;5.872;2022-10-31T13:23:14;38.70;;;20.42;;
39018;SDS011;24786;51.984;5.872;2022-10-31T13:25:47;39.78;;;20.60;;
39018;SDS011;24786;51.984;5.872;2022-10-31T13:31:00;33.92;;;18.73;;
39018;SDS011;24786;51.984;5.872;2022-10-31T13:41:53;34.93;;;20.23;;
39018;SDS011;24786;51.984;5.872;2022-10-31T13:44:28;38.25;;;18.05;;
39018;SDS011;24786;51.984;5.872;2022-10-31T13:46:56;38.35;;;18.63;;
39018;SDS011;24786;51.984;5.872;2022-10-31T13:51:51;33.10;;;16.67;;
39018;SDS011;24786;51.984;5.872;2022-10-31T13:56:48;33.00;;;17.40;;
39018;SDS011;24786;51.984;5.872;2022-10-31T13:59:17;34.15;;;18.25;;
39018;SDS011;24786;51.984;5.872;2022-10-31T14:04:24;31.27;;;16.40;;
39018;SDS011;24786;51.984;5.872;2022-10-31T14:06:56;35.08;;;18.35;;
39018;SDS011;24786;51.984;5.872;2022-10-31T14:09:33;41.45;;;18.58;;
39018;SDS011;24786;51.984;5.872;2022-10-31T14:12:23;31.73;;;17.40;;
39018;SDS011;24786;51.984;5.872;2022-10-31T14:15:17;30.42;;;16.27;;
39018;SDS011;24786;51.984;5.872;2022-10-31T14:23:50;31.60;;;16.17;;
39018;SDS011;24786;51.984;5.872;2022-10-31T14:28:42;26.50;;;15.57;;
39018;SDS011;24786;51.984;5.872;2022-10-31T14:31:29;31.38;;;16.92;;
39018;SDS011;24786;51.984;5.872;2022-10-31T14:34:23;29.83;;;16.38;;
39018;SDS011;24786;51.984;5.872;2022-10-31T14:36:58;41.95;;;16.48;;
39018;SDS011;24786;51.984;5.872;2022-10-31T14:45:16;30.85;;;15.70;;
39018;SDS011;24786;51.984;5.872;2022-10-31T14:48:08;29.25;;;15.82;;
39018;SDS011;24786;51.984;5.872;2022-10-31T14:53:16;31.05;;;15.23;;
39018;SDS011;24786;51.984;5.872;2022-10-31T14:55:45;30.95;;;16.65;;
39018;SDS011;24786;51.984;5.872;2022-10-31T14:58:15;24.85;;;15.32;;
39018;SDS011;24786;51.984;5.872;2022-10-31T15:00:46;30.05;;;16.25;;
39018;SDS011;24786;51.984;5.872;2022-10-31T15:03:14;31.70;;;16.23;;
39018;SDS011;24786;51.984;5.872;2022-10-31T15:06:09;30.73;;;15.40;;
39018;SDS011;24786;51.984;5.872;2022-10-31T15:08:44;31.77;;;15.43;;
39018;SDS011;24786;51.984;5.872;2022-10-31T15:11:26;27.25;;;15.85;;
39018;SDS011;24786;51.984;5.872;2022-10-31T15:14:01;35.50;;;16.17;;
39018;SDS011;24786;51.984;5.872;2022-10-31T15:16:48;33.50;;;15.90;;
39018;SDS011;24786;51.984;5.872;2022-10-31T15:19:15;34.30;;;16.98;;
39018;SDS011;24786;51.984;5.872;2022-10-31T15:21:45;30.40;;;16.52;;
39018;SDS011;24786;51.984;5.872;2022-10-31T15:24:12;33.00;;;16.02;;
39018;SDS011;24786;51.984;5.872;2022-10-31T15:26:50;30.00;;;16.23;;
39018;SDS011;24786;51.984;5.872;2022-10-31T15:29:18;33.13;;;17.30;;
39018;SDS011;24786;51.984;5.872;2022-10-31T15:31:52;27.55;;;15.07;;
39018;SDS011;24786;51.984;5.872;2022-10-31T15:37:10;34.78;;;16.95;;
39018;SDS011;24786;51.984;5.872;2022-10-31T15:39:42;29.42;;;15.95;;
39018;SDS011;24786;51.984;5.872;2022-10-31T15:45:30;29.58;;;16.23;;
39018;SDS011;24786;51.984;5.872;2022-10-31T15:47:37;29.42;;;15.85;;
39018;SDS011;24786;51.984;5.872;2022-10-31T15:50:04;35.35;;;17.48;;
39018;SDS011;24786;51.984;5.872;2022-10-31T15:52:43;29.33;;;16.23;;
39018;SDS011;24786;51.984;5.872;2022-10-31T15:57:41;33.83;;;17.92;;
39018;SDS011;24786;51.984;5.872;2022-10-31T16:02:48;40.92;;;19.38;;
39018;SDS011;24786;51.984;5.872;2022-10-31T16:05:15;33.10;;;17.15;;
39018;SDS011;24786;51.984;5.872;2022-10-31T16:07:49;36.65;;;19.08;;
39018;SDS011;24786;51.984;5.872;2022-10-31T16:10:23;35.03;;;17.70;;
39018;SDS011;24786;51.984;5.872;2022-10-31T16:12:50;35.92;;;17.13;;
39018;SDS011;24786;51.984;5.872;2022-10-31T16:15:17;38.78;;;18.38;;
39018;SDS011;24786;51.984;5.872;2022-10-31T16:17:45;33.47;;;18.05;;
39018;SDS011;24786;51.984;5.872;2022-10-31T16:22:50;29.95;;;16.98;;
39018;SDS011;24786;51.984;5.872;2022-10-31T16:25:36;31.38;;;16.38;;
39018;SDS011;24786;51.984;5.872;2022-10-31T16:28:12;31.63;;;15.90;;
39018;SDS011;24786;51.984;5.872;2022-10-31T16:30:42;30.83;;;16.88;;
39018;SDS011;24786;51.984;5.872;2022-10-31T16:33:28;31.38;;;16.63;;
39018;SDS011;24786;51.984;5.872;2022-10-31T16:38:52;33.67;;;16.70;;
39018;SDS011;24786;51.984;5.872;2022-10-31T16:41:18;36.45;;;18.08;;
39018;SDS011;24786;51.984;5.872;2022-10-31T16:43:44;37.80;;;17.98;;
39018;SDS011;24786;51.984;5.872;2022-10-31T16:46:14;32.92;;;17.65;;
39018;SDS011;24786;51.984;5.872;2022-10-31T16:48:47;29.80;;;16.30;;
39018;SDS011;24786;51.984;5.872;2022-10-31T16:51:12;37.08;;;16.67;;
39018;SDS011;24786;51.984;5.872;2022-10-31T16:53:38;36.45;;;17.55;;
39018;SDS011;24786;51.984;5.872;2022-10-31T16:56:03;32.13;;;16.67;;
39018;SDS011;24786;51.984;5.872;2022-10-31T16:58:31;33.03;;;17.17;;
39018;SDS011;24786;51.984;5.872;2022-10-31T17:00:58;31.48;;;17.88;;
39018;SDS011;24786;51.984;5.872;2022-10-31T17:03:25;36.70;;;17.52;;
39018;SDS011;24786;51.984;5.872;2022-10-31T17:05:51;31.83;;;17.30;;
39018;SDS011;24786;51.984;5.872;2022-10-31T17:08:16;31.38;;;16.65;;
39018;SDS011;24786;51.984;5.872;2022-10-31T17:10:43;38.67;;;16.33;;
39018;SDS011;24786;51.984;5.872;2022-10-31T17:13:12;31.15;;;16.52;;